Terminal Aerodrome Forecast
Issued by NWS Brownsville, TX

Current Version | Previous Version | Text Only | Print | Product List | Glossary Off
Versions: 1 2 3 4 5 6 7 8 9 10 11 12 13

000
FTUS44 KBRO 240536
TAFBRO
TAF
KBRO 240536Z 2406/2506 15007KT P6SM SCT020
     FM241500 16012KT P6SM SCT035
     FM241800 15014G20KT P6SM SCT040
     FM250100 14010KT P6SM FEW030=

USA.gov is the U.S. government's official web portal to all federal, state and local government web resources and services.